createdAt,value
2023-02-19T00:02:07.952Z,100.00
2023-02-19T00:04:34.575Z,100.00
2023-02-19T00:07:00.963Z,100.00
2023-02-19T00:09:27.633Z,100.00
2023-02-19T00:11:54.157Z,100.00
2023-02-19T00:14:21.544Z,100.00
2023-02-19T00:16:48.915Z,100.00
2023-02-19T00:19:18.797Z,100.00
2023-02-19T00:21:45.354Z,100.00
2023-02-19T00:24:13.501Z,100.00
2023-02-19T00:26:40.863Z,100.00
2023-02-19T00:29:09.285Z,100.00
2023-02-19T00:31:36.435Z,100.00
2023-02-19T00:34:05.292Z,100.00
2023-02-19T00:36:35.837Z,100.00
2023-02-19T00:39:02.388Z,100.00
2023-02-19T00:41:30.498Z,100.00
2023-02-19T00:44:03.437Z,100.00
2023-02-19T00:46:31.306Z,100.00
2023-02-19T00:48:58.601Z,100.00
2023-02-19T00:51:28.496Z,100.00
2023-02-19T00:53:55.216Z,100.00
2023-02-19T00:56:22.176Z,100.00
2023-02-19T00:58:48.983Z,100.00
2023-02-19T01:01:16.323Z,100.00
2023-02-19T01:03:42.932Z,100.00
2023-02-19T01:06:11.281Z,100.00
2023-02-19T01:08:38.209Z,100.00
2023-02-19T01:11:06.079Z,100.00
2023-02-19T01:13:33.525Z,100.00
2023-02-19T01:16:27.553Z,100.00
2023-02-19T01:18:54.834Z,100.00
2023-02-19T01:21:23.946Z,100.00
2023-02-19T01:23:51.924Z,100.00
2023-02-19T01:26:21.297Z,100.00
2023-02-19T01:28:48.437Z,100.00
2023-02-19T01:31:20.757Z,100.00
2023-02-19T01:33:49.717Z,100.00
2023-02-19T01:36:16.243Z,100.00
2023-02-19T01:38:43.057Z,100.00
2023-02-19T01:41:13.512Z,100.00
2023-02-19T01:44:00.742Z,100.00
2023-02-19T01:46:38.214Z,100.00
2023-02-19T01:49:14.111Z,100.00
2023-02-19T01:51:49.224Z,100.00
2023-02-19T01:54:20.973Z,100.00
2023-02-19T01:56:49.147Z,100.00
2023-02-19T01:59:16.737Z,100.00
2023-02-19T02:01:43.215Z,100.00
2023-02-19T02:04:12.112Z,100.00
2023-02-19T02:06:45.403Z,100.00
2023-02-19T02:09:30.836Z,100.00
2023-02-19T02:11:57.280Z,100.00
2023-02-19T02:14:27.719Z,100.00
2023-02-19T02:17:17.733Z,100.00
2023-02-19T02:20:15.018Z,100.00
2023-02-19T02:22:50.673Z,100.00
2023-02-19T02:25:51.890Z,100.00
2023-02-19T02:28:21.035Z,100.00
2023-02-19T02:30:55.529Z,100.00
2023-02-19T02:33:47.690Z,100.00
2023-02-19T02:36:18.542Z,100.00
2023-02-19T02:38:47.120Z,100.00
2023-02-19T02:41:15.389Z,100.00
2023-02-19T02:43:42.327Z,100.00
2023-02-19T02:46:16.691Z,100.00
2023-02-19T02:48:53.833Z,100.00
2023-02-19T02:51:30.812Z,100.00
2023-02-19T02:54:22.512Z,100.00
2023-02-19T02:56:50.168Z,100.00
2023-02-19T02:59:21.388Z,100.00
2023-02-19T03:02:12.573Z,100.00
2023-02-19T03:05:27.777Z,100.00
2023-02-19T03:08:06.257Z,100.00
2023-02-19T03:10:44.629Z,100.00
2023-02-19T03:13:40.857Z,100.00
2023-02-19T03:16:41.694Z,100.00
2023-02-19T03:19:19.618Z,100.00
2023-02-19T03:21:49.800Z,100.00
2023-02-19T03:24:38.452Z,100.00
2023-02-19T03:27:05.295Z,100.00
2023-02-19T03:29:35.596Z,100.00
2023-02-19T03:32:08.291Z,100.00
2023-02-19T03:34:41.579Z,100.00
2023-02-19T03:37:18.837Z,100.00
2023-02-19T03:39:45.609Z,100.00
2023-02-19T03:42:12.018Z,100.00
2023-02-19T03:44:50.808Z,100.00
2023-02-19T03:47:20.067Z,100.00
2023-02-19T03:49:51.601Z,100.00
2023-02-19T03:52:37.454Z,100.00
2023-02-19T03:55:26.260Z,100.00
2023-02-19T03:58:04.047Z,100.00
2023-02-19T04:00:38.286Z,100.00
2023-02-19T04:03:23.289Z,100.00
2023-02-19T04:05:55.981Z,100.00
2023-02-19T04:08:24.243Z,100.00
2023-02-19T04:10:53.359Z,100.00
2023-02-19T04:13:30.405Z,100.00
2023-02-19T04:16:02.422Z,100.00
2023-02-19T04:18:33.847Z,100.00
2023-02-19T04:21:03.307Z,100.00
2023-02-19T04:23:33.467Z,100.00
2023-02-19T04:26:12.430Z,100.00
2023-02-19T04:28:42.147Z,100.00
2023-02-19T04:31:09.543Z,100.00
2023-02-19T04:33:37.074Z,100.00
2023-02-19T04:36:04.682Z,100.00
2023-02-19T04:38:31.283Z,100.00
2023-02-19T04:40:57.827Z,100.00
2023-02-19T04:43:24.330Z,100.00
2023-02-19T04:45:50.842Z,100.00
2023-02-19T04:48:17.389Z,100.00
2023-02-19T04:50:43.886Z,100.00
2023-02-19T04:53:10.492Z,100.00
2023-02-19T04:55:38.594Z,100.00
2023-02-19T04:58:05.557Z,100.00
2023-02-19T05:00:33.866Z,100.00
2023-02-19T05:03:00.967Z,100.00
2023-02-19T05:05:27.919Z,100.00
2023-02-19T05:07:54.535Z,100.00
2023-02-19T05:10:21.030Z,100.00
2023-02-19T05:12:47.610Z,100.00
2023-02-19T05:15:14.080Z,100.00
2023-02-19T05:17:40.639Z,100.00
2023-02-19T05:20:07.766Z,100.00
2023-02-19T05:22:34.348Z,100.00
2023-02-19T05:25:00.819Z,100.00
2023-02-19T05:27:27.358Z,100.00
2023-02-19T05:29:53.794Z,100.00
2023-02-19T05:32:20.300Z,100.00
2023-02-19T05:34:46.725Z,100.00
2023-02-19T05:37:13.262Z,100.00
2023-02-19T05:39:39.729Z,100.00
2023-02-19T05:42:06.358Z,100.00
2023-02-19T05:44:32.777Z,100.00
2023-02-19T05:46:59.230Z,100.00
2023-02-19T05:49:26.841Z,100.00
2023-02-19T05:51:53.386Z,100.00
2023-02-19T05:54:19.874Z,100.00
2023-02-19T05:56:46.407Z,100.00
2023-02-19T05:59:21.597Z,100.00
2023-02-19T06:01:49.653Z,100.00
2023-02-19T06:04:17.188Z,100.00
2023-02-19T06:06:43.759Z,100.00
2023-02-19T06:09:10.553Z,100.00
2023-02-19T06:11:38.243Z,100.00
2023-02-19T06:14:05.479Z,100.00
2023-02-19T06:16:33.694Z,100.00
2023-02-19T06:19:03.956Z,100.00
2023-02-19T06:21:30.696Z,100.00
2023-02-19T06:23:57.127Z,100.00
2023-02-19T06:26:24.822Z,100.00
2023-02-19T06:28:53.055Z,100.00
2023-02-19T06:31:21.292Z,100.00
2023-02-19T06:33:48.218Z,100.00
2023-02-19T06:36:17.046Z,100.00
2023-02-19T06:38:44.088Z,100.00
2023-02-19T06:41:12.524Z,100.00
2023-02-19T06:43:39.275Z,100.00
2023-02-19T06:46:06.941Z,100.00
2023-02-19T06:48:34.069Z,100.00
2023-02-19T06:51:00.806Z,100.00
2023-02-19T06:53:27.634Z,100.00
2023-02-19T06:56:01.340Z,100.00
2023-02-19T06:58:27.917Z,100.00
2023-02-19T07:00:55.118Z,100.00
2023-02-19T07:03:21.857Z,100.00
2023-02-19T07:05:49.317Z,100.00
2023-02-19T07:08:17.273Z,100.00
2023-02-19T07:10:44.802Z,100.00
2023-02-19T07:13:11.523Z,100.00
2023-02-19T07:15:38.052Z,100.00
2023-02-19T07:18:07.056Z,100.00
2023-02-19T07:20:33.472Z,100.00
2023-02-19T07:23:00.053Z,100.00
2023-02-19T07:25:27.038Z,100.00
2023-02-19T07:27:53.490Z,100.00
2023-02-19T07:30:20.078Z,100.00
2023-02-19T07:32:46.571Z,100.00
2023-02-19T07:35:13.073Z,100.00
2023-02-19T07:37:41.195Z,100.00
2023-02-19T07:40:09.855Z,100.00
2023-02-19T07:42:36.357Z,100.00
2023-02-19T07:45:03.899Z,100.00
2023-02-19T07:47:30.628Z,100.00
2023-02-19T07:49:57.232Z,100.00
2023-02-19T07:52:23.813Z,100.00
2023-02-19T07:54:50.406Z,100.00
2023-02-19T07:57:16.917Z,100.00
2023-02-19T07:59:43.649Z,100.00
2023-02-19T08:02:39.296Z,100.00
2023-02-19T08:05:06.923Z,100.00
2023-02-19T08:07:37.130Z,100.00
2023-02-19T08:10:22.959Z,100.00
2023-02-19T08:13:16.519Z,100.00
2023-02-19T08:15:43.383Z,100.00
2023-02-19T08:18:10.817Z,100.00
2023-02-19T08:20:37.365Z,100.00
2023-02-19T08:23:03.979Z,100.00
2023-02-19T08:25:31.206Z,100.00
2023-02-19T08:27:57.866Z,100.00
2023-02-19T08:30:24.534Z,100.00
2023-02-19T08:32:50.960Z,100.00
2023-02-19T08:35:17.651Z,100.00
2023-02-19T08:37:44.193Z,100.00
2023-02-19T08:40:11.716Z,100.00
2023-02-19T08:42:38.242Z,100.00
2023-02-19T08:45:05.633Z,100.00
2023-02-19T08:47:35.473Z,100.00
2023-02-19T08:50:02.405Z,100.00
2023-02-19T08:52:28.876Z,100.00
2023-02-19T08:54:55.302Z,100.00
2023-02-19T08:57:22.181Z,100.00
2023-02-19T08:59:48.677Z,100.00
2023-02-19T09:02:15.121Z,100.00
2023-02-19T09:04:41.549Z,100.00
2023-02-19T09:07:09.567Z,100.00
2023-02-19T09:09:39.749Z,100.00
2023-02-19T09:12:10.862Z,100.00
2023-02-19T09:14:38.210Z,100.00
2023-02-19T09:17:06.534Z,100.00
2023-02-19T09:19:33.710Z,100.00
2023-02-19T09:22:00.179Z,100.00
2023-02-19T09:24:26.906Z,100.00
2023-02-19T09:26:54.530Z,100.00
2023-02-19T09:29:26.034Z,100.00
2023-02-19T09:31:59.522Z,100.00
2023-02-19T09:34:27.832Z,100.00
2023-02-19T09:36:54.856Z,100.00
2023-02-19T09:39:21.951Z,100.00
2023-02-19T09:42:15.349Z,100.00
2023-02-19T09:44:45.372Z,100.00
2023-02-19T09:47:27.768Z,100.00
2023-02-19T09:50:04.436Z,100.00
2023-02-19T09:52:30.808Z,100.00
2023-02-19T09:55:13.081Z,100.00
2023-02-19T09:57:44.871Z,100.00
2023-02-19T10:00:11.510Z,100.00
2023-02-19T10:02:38.735Z,100.00
2023-02-19T10:05:16.295Z,100.00
2023-02-19T10:07:49.345Z,100.00
2023-02-19T10:10:15.752Z,100.00
2023-02-19T10:12:52.361Z,100.00
2023-02-19T10:15:48.707Z,100.00
2023-02-19T10:18:20.777Z,100.00
2023-02-19T10:20:48.386Z,100.00
2023-02-19T10:23:16.081Z,100.00
2023-02-19T10:26:00.127Z,100.00
2023-02-19T10:28:33.533Z,100.00
2023-02-19T10:31:03.291Z,100.00
2023-02-19T10:33:30.148Z,100.00
2023-02-19T10:35:56.515Z,100.00
2023-02-19T10:38:46.715Z,100.00
2023-02-19T10:41:22.178Z,100.00
2023-02-19T10:44:06.901Z,100.00
2023-02-19T10:46:36.968Z,100.00
2023-02-19T10:49:37.735Z,100.00
2023-02-19T10:52:30.603Z,100.00
2023-02-19T10:55:14.442Z,100.00
2023-02-19T10:57:41.030Z,100.00
2023-02-19T11:00:16.428Z,100.00
2023-02-19T11:02:44.118Z,100.00
2023-02-19T11:05:15.001Z,100.00
2023-02-19T11:07:46.268Z,100.00
2023-02-19T11:10:31.513Z,100.00
2023-02-19T11:13:01.505Z,100.00
2023-02-19T11:15:30.337Z,100.00
2023-02-19T11:18:12.077Z,100.00
2023-02-19T11:20:57.599Z,100.00
2023-02-19T11:23:32.818Z,100.00
2023-02-19T11:26:03.541Z,100.00
2023-02-19T11:28:36.074Z,100.00
2023-02-19T11:31:18.939Z,100.00
2023-02-19T11:34:14.508Z,100.00
2023-02-19T11:36:41.984Z,100.00
2023-02-19T11:39:17.170Z,100.00
2023-02-19T11:41:53.644Z,100.00
2023-02-19T11:44:50.254Z,100.00
2023-02-19T11:47:35.229Z,100.00
2023-02-19T11:50:23.611Z,100.00
2023-02-19T11:53:27.902Z,100.00
2023-02-19T11:56:13.262Z,99.92
2023-02-19T11:58:55.333Z,99.72
2023-02-19T12:01:38.497Z,99.60
2023-02-19T12:04:37.629Z,99.46
2023-02-19T12:07:04.216Z,100.00
2023-02-19T12:09:41.090Z,99.72
2023-02-19T12:12:16.667Z,100.00
2023-02-19T12:15:15.309Z,100.00
2023-02-19T12:17:47.581Z,100.00
2023-02-19T12:20:26.039Z,100.00
2023-02-19T12:23:17.355Z,100.00
2023-02-19T12:25:52.443Z,100.00
2023-02-19T12:28:37.012Z,100.00
2023-02-19T12:31:36.552Z,100.00
2023-02-19T12:34:42.608Z,100.00
2023-02-19T12:37:26.013Z,100.00
2023-02-19T12:40:13.044Z,99.78
2023-02-19T12:42:56.885Z,99.93
2023-02-19T12:46:00.303Z,100.00
2023-02-19T12:48:43.003Z,100.00
2023-02-19T12:51:28.623Z,100.00
2023-02-19T12:54:17.880Z,100.00
2023-02-19T12:56:52.370Z,100.00
2023-02-19T12:59:29.930Z,100.00
2023-02-19T13:02:23.727Z,100.00
2023-02-19T13:04:58.395Z,100.00
2023-02-19T13:07:44.163Z,100.00
2023-02-19T13:10:10.553Z,100.00
2023-02-19T13:12:41.513Z,100.00
2023-02-19T13:15:18.429Z,100.00
2023-02-19T13:17:52.587Z,99.89
2023-02-19T13:20:21.655Z,100.00
2023-02-19T13:23:42.196Z,100.00
2023-02-19T13:26:23.518Z,100.00
2023-02-19T13:29:04.626Z,100.00
2023-02-19T13:31:33.887Z,100.00
2023-02-19T13:34:00.546Z,100.00
2023-02-19T13:36:29.048Z,100.00
2023-02-19T13:38:59.525Z,99.78
2023-02-19T13:41:41.267Z,100.00
2023-02-19T13:44:20.512Z,99.88
2023-02-19T13:46:48.558Z,99.33
2023-02-19T13:49:36.401Z,98.61
2023-02-19T13:52:33.148Z,99.05
2023-02-19T13:55:40.752Z,98.87
2023-02-19T13:58:32.944Z,97.28
2023-02-19T14:01:05.450Z,97.47
2023-02-19T14:03:37.800Z,96.90
2023-02-19T14:06:09.631Z,96.11
2023-02-19T14:08:57.123Z,96.11
2023-02-19T14:12:03.562Z,95.36
2023-02-19T14:14:37.278Z,95.10
2023-02-19T14:17:23.754Z,94.28
2023-02-19T14:19:58.554Z,93.94
2023-02-19T14:22:52.008Z,94.11
2023-02-19T14:25:27.757Z,93.79
2023-02-19T14:27:59.711Z,94.11
2023-02-19T14:30:27.322Z,93.75
2023-02-19T14:33:02.778Z,93.78
2023-02-19T14:35:40.410Z,92.50
2023-02-19T14:38:16.658Z,91.92
2023-02-19T14:40:45.891Z,91.26
2023-02-19T14:43:16.605Z,91.05
2023-02-19T14:45:47.334Z,90.76
2023-02-19T14:48:38.395Z,90.09
2023-02-19T14:51:13.683Z,90.26
2023-02-19T14:53:44.539Z,89.83
2023-02-19T14:56:24.978Z,89.34
2023-02-19T14:59:13.187Z,89.19
2023-02-19T15:01:39.791Z,89.34
2023-02-19T15:04:06.857Z,88.33
2023-02-19T15:06:35.851Z,87.81
2023-02-19T15:09:07.218Z,87.52
2023-02-19T15:11:35.118Z,87.27
2023-02-19T15:14:08.193Z,87.08
2023-02-19T15:16:36.344Z,87.42
2023-02-19T15:19:07.904Z,88.80
2023-02-19T15:21:38.825Z,88.78
2023-02-19T15:24:06.968Z,88.88
2023-02-19T15:26:43.402Z,91.05
2023-02-19T15:29:12.502Z,91.98
2023-02-19T15:31:54.732Z,91.98
2023-02-19T15:34:25.422Z,91.66
2023-02-19T15:36:56.810Z,92.76
2023-02-19T15:39:26.138Z,93.29
2023-02-19T15:42:00.211Z,94.06
2023-02-19T15:44:45.252Z,93.42
2023-02-19T15:47:29.689Z,94.00
2023-02-19T15:50:04.338Z,94.33
2023-02-19T15:52:39.117Z,93.23
2023-02-19T15:55:24.033Z,94.06
2023-02-19T15:58:04.573Z,93.95
2023-02-19T16:00:42.064Z,94.46
2023-02-19T16:03:17.470Z,94.93
2023-02-19T16:05:44.028Z,95.03
2023-02-19T16:08:20.289Z,95.40
2023-02-19T16:10:58.396Z,96.15
2023-02-19T16:13:30.548Z,95.84
2023-02-19T16:16:03.051Z,96.53
2023-02-19T16:18:30.284Z,96.44
2023-02-19T16:20:57.233Z,95.92
2023-02-19T16:23:24.327Z,96.96
2023-02-19T16:26:01.992Z,96.63
2023-02-19T16:28:35.453Z,97.70
2023-02-19T16:31:22.304Z,97.55
2023-02-19T16:33:50.261Z,97.90
2023-02-19T16:36:23.896Z,97.64
2023-02-19T16:39:08.484Z,97.47
2023-02-19T16:41:40.874Z,97.29
2023-02-19T16:44:25.754Z,97.26
2023-02-19T16:46:54.356Z,97.80
2023-02-19T16:49:22.774Z,97.68
2023-02-19T16:51:50.866Z,97.85
2023-02-19T16:54:17.347Z,97.64
2023-02-19T16:56:43.770Z,98.14
2023-02-19T16:59:10.254Z,97.60
2023-02-19T17:01:37.523Z,97.38
2023-02-19T17:04:06.591Z,98.04
2023-02-19T17:06:34.665Z,97.92
2023-02-19T17:09:01.199Z,97.74
2023-02-19T17:11:27.676Z,97.19
2023-02-19T17:13:54.097Z,97.30
2023-02-19T17:16:27.526Z,97.25
2023-02-19T17:18:55.196Z,97.52
2023-02-19T17:21:23.414Z,97.22
2023-02-19T17:23:50.741Z,98.06
2023-02-19T17:26:23.908Z,97.13
2023-02-19T17:28:50.792Z,96.44
2023-02-19T17:31:18.035Z,96.65
2023-02-19T17:33:44.858Z,96.01
2023-02-19T17:36:40.377Z,95.86
2023-02-19T17:39:14.948Z,95.67
2023-02-19T17:41:41.657Z,95.28
2023-02-19T17:44:08.050Z,95.95
2023-02-19T17:46:34.629Z,96.01
2023-02-19T17:49:01.190Z,96.10
2023-02-19T17:51:28.335Z,95.25
2023-02-19T17:53:54.812Z,95.11
2023-02-19T17:56:25.556Z,95.12
2023-02-19T17:58:52.710Z,95.13
2023-02-19T18:01:19.144Z,94.92
2023-02-19T18:03:45.629Z,94.88
2023-02-19T18:06:12.136Z,94.18
2023-02-19T18:08:39.232Z,94.42
2023-02-19T18:11:07.407Z,94.27
2023-02-19T18:13:33.823Z,93.72
2023-02-19T18:16:00.447Z,95.04
2023-02-19T18:18:26.982Z,94.61
2023-02-19T18:20:53.444Z,93.71
2023-02-19T18:23:20.649Z,93.33
2023-02-19T18:25:47.328Z,93.15
2023-02-19T18:28:14.891Z,93.69
2023-02-19T18:30:41.474Z,93.64
2023-02-19T18:33:10.734Z,92.78
2023-02-19T18:35:37.979Z,93.53
2023-02-19T18:38:04.751Z,93.21
2023-02-19T18:40:31.319Z,93.67
2023-02-19T18:42:58.629Z,93.86
2023-02-19T18:45:25.321Z,93.52
2023-02-19T18:47:51.879Z,94.25
2023-02-19T18:50:19.223Z,94.08
2023-02-19T18:52:45.792Z,94.34
2023-02-19T18:55:12.232Z,93.99
2023-02-19T18:57:38.779Z,94.12
2023-02-19T19:00:06.927Z,94.99
2023-02-19T19:02:47.050Z,95.24
2023-02-19T19:05:18.389Z,95.57
2023-02-19T19:07:44.911Z,95.87
2023-02-19T19:10:11.385Z,95.61
2023-02-19T19:12:37.864Z,95.67
2023-02-19T19:15:04.987Z,96.07
2023-02-19T19:17:31.454Z,96.79
2023-02-19T19:19:57.933Z,97.29
2023-02-19T19:22:25.097Z,97.53
2023-02-19T19:24:51.562Z,97.65
2023-02-19T19:27:20.255Z,98.58
2023-02-19T19:29:47.866Z,98.58
2023-02-19T19:32:14.535Z,99.06
2023-02-19T19:34:42.758Z,99.70
2023-02-19T19:37:09.575Z,99.44
2023-02-19T19:39:36.813Z,100.00
2023-02-19T19:42:03.528Z,100.00
2023-02-19T19:44:30.058Z,100.00
2023-02-19T19:46:56.619Z,100.00
2023-02-19T19:49:23.486Z,100.00
2023-02-19T19:51:49.929Z,100.00
2023-02-19T19:54:16.407Z,100.00
2023-02-19T19:56:45.703Z,100.00
2023-02-19T19:59:14.501Z,100.00
2023-02-19T20:02:03.088Z,100.00
2023-02-19T20:04:29.797Z,100.00
2023-02-19T20:06:58.481Z,100.00
2023-02-19T20:09:25.564Z,100.00
2023-02-19T20:11:53.305Z,100.00
2023-02-19T20:14:22.046Z,100.00
2023-02-19T20:16:49.678Z,100.00
2023-02-19T20:19:17.330Z,100.00
2023-02-19T20:21:51.461Z,100.00
2023-02-19T20:24:24.095Z,100.00
2023-02-19T20:26:54.796Z,100.00
2023-02-19T20:29:21.219Z,100.00
2023-02-19T20:31:49.821Z,100.00
2023-02-19T20:34:16.882Z,100.00
2023-02-19T20:36:44.567Z,100.00
2023-02-19T20:39:11.670Z,100.00
2023-02-19T20:41:38.209Z,100.00
2023-02-19T20:44:04.722Z,100.00
2023-02-19T20:46:31.257Z,100.00
2023-02-19T20:48:57.815Z,100.00
2023-02-19T20:51:24.363Z,100.00
2023-02-19T20:53:50.770Z,100.00
2023-02-19T20:56:17.221Z,100.00
2023-02-19T20:58:43.647Z,100.00
2023-02-19T21:01:11.688Z,100.00
2023-02-19T21:03:38.185Z,100.00
2023-02-19T21:06:04.789Z,100.00
2023-02-19T21:08:31.223Z,100.00
2023-02-19T21:10:57.673Z,100.00
2023-02-19T21:13:24.141Z,100.00
2023-02-19T21:15:50.652Z,100.00
2023-02-19T21:18:17.419Z,100.00
2023-02-19T21:20:43.942Z,100.00
2023-02-19T21:23:10.516Z,100.00
2023-02-19T21:25:36.951Z,100.00
2023-02-19T21:28:03.712Z,100.00
2023-02-19T21:30:30.223Z,100.00
2023-02-19T21:32:57.193Z,100.00
2023-02-19T21:35:23.612Z,100.00
2023-02-19T21:37:50.698Z,100.00
2023-02-19T21:40:17.150Z,100.00
2023-02-19T21:42:43.634Z,100.00
2023-02-19T21:45:10.127Z,100.00
2023-02-19T21:47:36.556Z,100.00
2023-02-19T21:50:03.152Z,100.00
2023-02-19T21:52:31.000Z,100.00
2023-02-19T21:54:57.982Z,100.00
2023-02-19T21:57:24.451Z,100.00
2023-02-19T21:59:50.979Z,100.00
2023-02-19T22:02:20.488Z,100.00
2023-02-19T22:04:53.426Z,100.00
2023-02-19T22:07:21.200Z,100.00
2023-02-19T22:09:48.765Z,100.00
2023-02-19T22:12:15.751Z,100.00
2023-02-19T22:14:42.410Z,100.00
2023-02-19T22:17:09.361Z,100.00
2023-02-19T22:19:36.026Z,100.00
2023-02-19T22:22:02.818Z,100.00
2023-02-19T22:24:29.311Z,100.00
2023-02-19T22:26:57.165Z,100.00
2023-02-19T22:29:24.369Z,100.00
2023-02-19T22:31:51.019Z,100.00
2023-02-19T22:34:17.790Z,100.00
2023-02-19T22:36:44.790Z,100.00
2023-02-19T22:39:26.294Z,100.00
2023-02-19T22:41:53.384Z,100.00
2023-02-19T22:44:20.037Z,100.00
2023-02-19T22:46:49.730Z,100.00
2023-02-19T22:49:17.002Z,100.00
2023-02-19T22:51:50.990Z,100.00
2023-02-19T22:54:17.852Z,100.00
2023-02-19T22:56:44.575Z,100.00
2023-02-19T22:59:11.204Z,100.00
2023-02-19T23:01:37.732Z,100.00
2023-02-19T23:04:10.501Z,100.00
2023-02-19T23:06:42.709Z,100.00
2023-02-19T23:09:14.973Z,100.00
2023-02-19T23:11:42.461Z,100.00
2023-02-19T23:14:09.002Z,100.00
2023-02-19T23:16:35.861Z,100.00
2023-02-19T23:19:04.864Z,100.00
2023-02-19T23:21:32.591Z,100.00
2023-02-19T23:23:59.536Z,100.00
2023-02-19T23:26:26.203Z,100.00
2023-02-19T23:28:52.675Z,100.00
2023-02-19T23:31:19.462Z,100.00
2023-02-19T23:33:46.100Z,100.00
2023-02-19T23:36:13.957Z,100.00
2023-02-19T23:38:43.756Z,100.00
2023-02-19T23:41:12.239Z,100.00
2023-02-19T23:43:39.342Z,100.00
2023-02-19T23:46:06.233Z,100.00
2023-02-19T23:48:32.984Z,100.00
2023-02-19T23:50:59.635Z,100.00
2023-02-19T23:53:26.083Z,100.00
2023-02-19T23:55:52.613Z,100.00
2023-02-19T23:58:19.059Z,100.00
